Time;durP1;ratioP1;P1;durP2;ratioP2;P2;SDS_P1;SDS_P2;PMS_P1;PMS_P2;Temp;Humidity;BMP_temperature;BMP_pressure;BME280_temperature;BME280_humidity;BME280_pressure;Samples;Min_cycle;Max_cycle;Signal;HPM_P1;HPM_P2
2022/01/15 00:01:15;;;;;;;13.60;5.27;;;5.00;99.90;;;;;;5008691;28;20628;-79
2022/01/15 00:03:41;;;;;;;15.47;4.70;;;5.00;99.90;;;;;;5006745;28;20209;-80
2022/01/15 00:06:06;;;;;;;14.53;5.33;;;5.00;99.90;;;;;;5001501;28;20711;-79
2022/01/15 00:08:32;;;;;;;11.00;4.67;;;5.00;99.90;;;;;;5007232;28;20232;-79
2022/01/15 00:10:58;;;;;;;13.17;5.37;;;5.00;99.90;;;;;;5009048;28;20197;-80
2022/01/15 00:13:27;;;;;;;12.40;5.13;;;4.90;99.90;;;;;;4988226;28;20182;-79
2022/01/15 00:16:04;;;;;;;9.50;4.90;;;4.90;99.90;;;;;;5005823;28;20201;-79
2022/01/15 00:18:42;;;;;;;10.00;5.00;;;4.90;99.90;;;;;;5009769;28;20635;-79
2022/01/15 00:21:09;;;;;;;11.00;3.93;;;5.00;99.90;;;;;;4994066;28;20624;-79
2022/01/15 00:23:35;;;;;;;5.93;4.00;;;4.80;99.90;;;;;;4981289;28;20608;-79
2022/01/15 00:26:01;;;;;;;7.97;4.30;;;4.80;99.90;;;;;;5007109;28;20670;-79
2022/01/15 00:28:26;;;;;;;8.17;4.03;;;4.70;99.90;;;;;;5009911;28;20801;-79
2022/01/15 00:30:52;;;;;;;10.30;4.83;;;4.70;99.90;;;;;;5004784;28;20593;-79
2022/01/15 00:33:18;;;;;;;9.70;4.30;;;4.70;99.90;;;;;;5003019;28;20186;-80
2022/01/15 00:35:43;;;;;;;10.53;4.13;;;4.60;99.90;;;;;;5004307;28;20206;-80
2022/01/15 00:38:09;;;;;;;9.97;4.67;;;4.60;99.90;;;;;;5010111;28;20201;-79
2022/01/15 00:40:34;;;;;;;11.13;4.90;;;4.60;99.90;;;;;;5015848;28;20225;-79
2022/01/15 00:43:00;;;;;;;14.10;4.87;;;4.60;99.90;;;;;;4988470;28;20202;-79
2022/01/15 00:45:31;;;;;;;10.87;4.50;;;4.50;99.90;;;;;;5006949;28;20198;-79
2022/01/15 00:47:57;;;;;;;9.37;4.20;;;4.50;99.90;;;;;;5009160;28;20233;-79
2022/01/15 00:50:22;;;;;;;12.60;4.20;;;4.50;99.90;;;;;;5005298;28;20757;-80
2022/01/15 00:52:48;;;;;;;8.23;4.40;;;4.50;99.90;;;;;;4986941;28;21493;-79
2022/01/15 00:55:15;;;;;;;16.23;5.00;;;4.40;99.90;;;;;;5006571;28;20193;-79
2022/01/15 00:57:41;;;;;;;9.90;4.37;;;4.40;99.90;;;;;;5002042;28;20292;-79
2022/01/15 01:00:09;;;;;;;11.03;4.10;;;4.40;99.90;;;;;;4996383;28;20750;-80
2022/01/15 01:02:34;;;;;;;8.43;3.83;;;4.40;99.90;;;;;;5001329;28;20576;-79
2022/01/15 01:05:00;;;;;;;9.30;3.93;;;4.40;99.90;;;;;;5005168;28;20639;-79
2022/01/15 01:07:26;;;;;;;12.20;5.10;;;4.40;99.90;;;;;;5001833;28;20227;-79
2022/01/15 01:12:36;;;;;;;15.47;4.00;;;4.40;99.90;;;;;;5005053;28;20207;-80
2022/01/15 01:22:57;;;;;;;10.30;5.07;;;4.50;99.90;;;;;;5006966;28;20678;-79
2022/01/15 01:25:29;;;;;;;10.20;4.37;;;4.60;99.90;;;;;;5006072;28;20692;-80
2022/01/15 01:28:02;;;;;;;6.73;3.17;;;4.60;99.90;;;;;;4987910;28;20690;-80
2022/01/15 01:30:34;;;;;;;7.67;3.53;;;4.60;99.90;;;;;;5006692;28;20638;-80
2022/01/15 01:33:37;;;;;;;8.77;4.30;;;4.60;99.90;;;;;;5004397;28;20601;-79
2022/01/15 01:36:11;;;;;;;10.83;3.00;;;4.60;99.90;;;;;;5008926;28;20654;-80
2022/01/15 01:38:53;;;;;;;10.10;3.47;;;4.70;99.90;;;;;;5003660;28;20632;-79
2022/01/15 01:41:21;;;;;;;11.10;4.13;;;4.70;99.90;;;;;;5008327;28;20601;-79
2022/01/15 01:44:01;;;;;;;9.57;4.00;;;4.70;99.90;;;;;;5005983;28;20604;-79
2022/01/15 01:48:54;;;;;;;7.77;3.73;;;4.70;99.90;;;;;;5008702;28;21250;-79
2022/01/15 01:51:31;;;;;;;8.17;3.23;;;4.70;99.90;;;;;;5004877;28;20627;-79
2022/01/15 01:53:59;;;;;;;13.80;3.30;;;4.70;99.90;;;;;;5018277;28;21052;-79
2022/01/15 01:56:25;;;;;;;11.60;4.00;;;4.80;99.90;;;;;;5005726;28;20707;-79
2022/01/15 01:58:50;;;;;;;12.33;3.23;;;4.80;99.90;;;;;;5006063;28;20640;-80
2022/01/15 02:01:16;;;;;;;8.30;3.30;;;4.90;99.90;;;;;;5007690;28;20201;-79
2022/01/15 02:03:42;;;;;;;17.23;3.27;;;4.90;99.90;;;;;;4995523;28;20283;-81
2022/01/15 02:06:07;;;;;;;10.20;3.13;;;4.90;99.90;;;;;;5010960;28;20287;-81
2022/01/15 02:08:35;;;;;;;8.30;3.30;;;5.00;99.90;;;;;;5008614;28;20225;-79
2022/01/15 02:11:03;;;;;;;10.17;3.70;;;4.90;99.90;;;;;;5008152;28;20177;-80
2022/01/15 02:13:29;;;;;;;13.97;3.93;;;5.00;99.90;;;;;;5003193;28;20666;-79
2022/01/15 02:16:01;;;;;;;11.07;3.00;;;5.00;99.90;;;;;;5007108;28;20644;-80
2022/01/15 02:18:27;;;;;;;6.23;2.37;;;5.10;99.90;;;;;;5003813;28;20653;-80
2022/01/15 02:23:43;;;;;;;15.57;3.70;;;5.10;99.90;;;;;;5006768;28;20248;-78
2022/01/15 02:26:10;;;;;;;11.70;2.90;;;5.10;99.90;;;;;;5007480;28;20663;-80
2022/01/15 02:28:39;;;;;;;9.23;3.03;;;5.10;99.90;;;;;;5007482;28;23135;-78
2022/01/15 02:31:16;;;;;;;12.90;4.10;;;5.20;99.90;;;;;;5007527;28;20636;-79
2022/01/15 02:33:44;;;;;;;15.70;4.77;;;5.20;99.90;;;;;;5006532;28;20757;-78
2022/01/15 02:36:15;;;;;;;8.97;2.80;;;5.20;99.90;;;;;;5008253;28;20644;-79
2022/01/15 02:38:42;;;;;;;10.00;3.10;;;5.20;99.90;;;;;;4994378;28;20664;-79
2022/01/15 02:41:08;;;;;;;15.00;3.20;;;5.10;99.90;;;;;;4988014;28;20715;-79
2022/01/15 02:43:35;;;;;;;9.50;3.13;;;5.50;99.90;;;;;;5011378;28;20620;-79
2022/01/15 02:49:06;;;;;;;10.13;3.97;;;5.20;99.90;;;;;;4943329;28;20631;-80
2022/01/15 02:51:34;;;;;;;13.63;3.77;;;5.10;99.90;;;;;;5008683;28;20687;-80
2022/01/15 02:54:00;;;;;;;6.50;3.00;;;5.20;99.90;;;;;;4984522;28;20636;-80
2022/01/15 02:56:40;;;;;;;14.73;3.83;;;5.20;99.90;;;;;;5010133;28;20679;-78
2022/01/15 02:59:09;;;;;;;8.50;4.27;;;5.20;99.90;;;;;;5012147;28;20644;-80
2022/01/15 03:01:35;;;;;;;9.90;3.07;;;5.20;99.90;;;;;;5006644;28;20720;-79
2022/01/15 03:04:02;;;;;;;9.80;2.90;;;5.20;99.90;;;;;;5005559;28;20699;-80
2022/01/15 03:06:27;;;;;;;8.70;3.00;;;5.20;99.90;;;;;;5011646;28;20743;-79
2022/01/15 03:08:53;;;;;;;11.37;2.67;;;5.20;99.90;;;;;;5005498;28;20640;-79
2022/01/15 03:11:20;;;;;;;7.07;3.43;;;5.30;99.90;;;;;;4994244;28;20352;-79
2022/01/15 03:13:46;;;;;;;7.93;3.60;;;5.20;99.90;;;;;;5007458;28;20699;-79
2022/01/15 03:16:15;;;;;;;13.23;3.63;;;5.20;99.90;;;;;;5004672;28;20646;-80
2022/01/15 03:18:41;;;;;;;8.73;3.20;;;5.30;99.90;;;;;;5004645;28;20645;-79
2022/01/15 03:21:06;;;;;;;9.87;3.67;;;5.30;99.90;;;;;;5004385;28;20714;-80
2022/01/15 03:23:32;;;;;;;11.83;3.60;;;5.30;99.90;;;;;;5008288;28;20252;-80
2022/01/15 03:25:58;;;;;;;10.90;3.57;;;5.30;99.90;;;;;;5009232;28;20275;-82
2022/01/15 03:28:24;;;;;;;7.90;3.10;;;5.30;99.90;;;;;;5003764;28;20588;-78
2022/01/15 03:30:49;;;;;;;16.27;4.33;;;5.30;99.90;;;;;;4995105;28;20197;-80
2022/01/15 03:33:15;;;;;;;7.53;2.70;;;5.30;99.90;;;;;;5011896;28;20333;-82
2022/01/15 03:35:41;;;;;;;10.37;3.67;;;5.30;99.90;;;;;;5011174;28;20635;-79
2022/01/15 03:38:07;;;;;;;8.07;3.77;;;5.30;99.90;;;;;;5010345;28;20193;-79
2022/01/15 03:40:34;;;;;;;11.83;3.60;;;5.30;99.90;;;;;;5006108;28;20357;-79
2022/01/15 03:43:00;;;;;;;9.23;4.07;;;5.30;99.90;;;;;;5003258;28;20969;-79
2022/01/15 03:45:26;;;;;;;12.43;3.67;;;5.30;99.90;;;;;;5008329;28;20620;-79
2022/01/15 03:47:51;;;;;;;9.60;2.90;;;5.30;99.90;;;;;;4989812;28;21953;-79
2022/01/15 03:50:18;;;;;;;12.20;3.07;;;5.40;99.90;;;;;;4967578;28;20217;-80
2022/01/15 03:52:44;;;;;;;6.73;2.83;;;5.40;99.90;;;;;;5009690;28;20280;-80
2022/01/15 03:55:11;;;;;;;17.37;3.97;;;5.30;99.90;;;;;;5008715;28;20639;-80
2022/01/15 03:57:37;;;;;;;14.30;3.00;;;5.40;99.90;;;;;;5006253;28;20310;-81
2022/01/15 04:00:10;;;;;;;7.80;3.10;;;5.70;99.90;;;;;;5006741;28;20633;-80
2022/01/15 04:02:36;;;;;;;11.90;3.57;;;5.30;99.90;;;;;;5009235;28;20625;-79
2022/01/15 04:05:02;;;;;;;8.73;3.60;;;5.30;99.90;;;;;;5005732;28;20659;-79
2022/01/15 04:07:28;;;;;;;8.20;3.00;;;5.30;99.90;;;;;;5009781;28;20271;-78
2022/01/15 04:09:54;;;;;;;8.80;3.20;;;5.30;99.90;;;;;;4988320;28;20236;-79
2022/01/15 04:12:19;;;;;;;10.57;4.30;;;5.20;99.90;;;;;;5014022;28;21164;-78
2022/01/15 04:14:45;;;;;;;11.40;3.60;;;5.20;99.90;;;;;;5005129;28;20365;-79
2022/01/15 04:17:10;;;;;;;12.90;3.63;;;5.20;99.90;;;;;;5004288;28;20228;-80
2022/01/15 04:19:36;;;;;;;7.27;3.00;;;5.20;99.90;;;;;;5004019;28;20230;-79
2022/01/15 04:22:03;;;;;;;8.20;3.30;;;5.20;99.90;;;;;;5006401;28;20208;-79
2022/01/15 04:24:29;;;;;;;7.63;2.50;;;5.20;99.90;;;;;;5004480;28;20205;-79
2022/01/15 04:26:54;;;;;;;7.63;3.90;;;5.20;99.90;;;;;;5010087;28;20672;-80
2022/01/15 04:29:21;;;;;;;4.63;2.60;;;5.20;99.90;;;;;;4994043;28;20325;-80
2022/01/15 04:31:48;;;;;;;11.17;4.23;;;5.10;99.90;;;;;;5005966;28;20194;-80
2022/01/15 04:34:25;;;;;;;10.00;3.43;;;5.10;99.90;;;;;;5012160;28;20620;-80
2022/01/15 04:36:53;;;;;;;9.60;2.87;;;5.10;99.90;;;;;;5006812;28;20679;-79
2022/01/15 04:39:19;;;;;;;12.23;3.70;;;5.10;99.90;;;;;;5010625;28;20643;-79
2022/01/15 04:41:45;;;;;;;10.60;3.30;;;5.10;99.90;;;;;;5006007;28;21029;-80
2022/01/15 04:44:11;;;;;;;8.17;2.67;;;5.00;99.90;;;;;;5008437;28;20624;-79
2022/01/15 04:46:38;;;;;;;7.07;2.57;;;5.00;99.90;;;;;;4998949;28;21034;-79
2022/01/15 04:49:05;;;;;;;12.50;3.50;;;5.00;99.90;;;;;;5005270;28;20222;-78
2022/01/15 04:51:31;;;;;;;10.17;3.37;;;5.00;99.90;;;;;;5008027;28;20707;-79
2022/01/15 04:53:57;;;;;;;11.90;3.50;;;5.00;99.90;;;;;;5007056;28;20747;-79
2022/01/15 04:56:23;;;;;;;10.53;2.63;;;5.00;99.90;;;;;;5007954;28;21286;-80
2022/01/15 04:58:49;;;;;;;7.97;3.03;;;5.00;99.90;;;;;;5003907;28;20247;-79
2022/01/15 05:01:15;;;;;;;13.67;4.03;;;5.00;99.90;;;;;;5008877;28;20627;-79
2022/01/15 05:03:40;;;;;;;6.63;2.57;;;5.00;99.90;;;;;;4995076;28;20634;-81
2022/01/15 05:06:06;;;;;;;4.13;2.27;;;4.90;99.90;;;;;;5005877;28;20217;-79
2022/01/15 05:08:32;;;;;;;8.80;4.20;;;5.10;99.90;;;;;;5007437;28;20693;-79
2022/01/15 05:11:00;;;;;;;10.10;2.43;;;4.90;99.90;;;;;;5009403;28;20190;-79
2022/01/15 05:13:29;;;;;;;6.70;3.10;;;4.90;99.90;;;;;;5005418;28;20620;-79
2022/01/15 05:15:55;;;;;;;9.07;3.30;;;4.90;99.90;;;;;;5010316;28;20639;-80
2022/01/15 05:18:21;;;;;;;6.80;2.50;;;4.90;99.90;;;;;;5004695;28;20726;-78
2022/01/15 05:20:47;;;;;;;12.60;3.23;;;4.90;99.90;;;;;;5007117;28;20735;-80
2022/01/15 05:23:13;;;;;;;8.10;3.10;;;5.00;99.90;;;;;;4995939;28;20284;-79
2022/01/15 05:25:39;;;;;;;8.73;3.30;;;5.20;99.90;;;;;;5007353;28;20228;-79
2022/01/15 05:28:05;;;;;;;12.13;3.00;;;5.20;99.90;;;;;;5012893;28;20675;-79
2022/01/15 05:30:32;;;;;;;9.77;3.03;;;5.00;99.90;;;;;;5009255;28;20629;-79
2022/01/15 05:32:58;;;;;;;8.20;3.33;;;5.00;99.90;;;;;;5006321;28;20627;-79
2022/01/15 05:35:28;;;;;;;6.47;3.40;;;5.00;99.90;;;;;;5009872;28;20684;-79
2022/01/15 05:37:58;;;;;;;8.63;3.03;;;5.00;99.90;;;;;;5008371;28;20693;-80
2022/01/15 05:40:24;;;;;;;11.20;3.37;;;5.00;99.90;;;;;;5011576;28;20637;-79
2022/01/15 05:42:51;;;;;;;10.57;3.37;;;5.00;99.90;;;;;;4996569;28;20623;-79
2022/01/15 05:45:17;;;;;;;11.10;3.20;;;5.00;99.90;;;;;;5010913;28;20614;-79
2022/01/15 05:47:42;;;;;;;12.20;3.03;;;5.00;99.90;;;;;;5013832;28;20675;-79
2022/01/15 05:50:08;;;;;;;5.70;2.30;;;5.00;99.90;;;;;;5008281;28;20213;-79
2022/01/15 05:52:34;;;;;;;9.40;4.13;;;5.00;99.90;;;;;;5006699;28;20676;-79
2022/01/15 05:55:00;;;;;;;13.40;3.03;;;5.00;99.90;;;;;;5007021;28;20221;-81
2022/01/15 05:57:25;;;;;;;8.70;3.50;;;5.00;99.90;;;;;;5009960;28;20228;-79
2022/01/15 05:59:51;;;;;;;10.47;3.90;;;5.00;99.90;;;;;;5005469;28;20650;-80
2022/01/15 06:02:18;;;;;;;5.90;2.83;;;5.00;99.90;;;;;;5015706;28;20200;-79
2022/01/15 06:04:44;;;;;;;11.43;5.57;;;4.90;99.90;;;;;;5013467;28;20958;-79
2022/01/15 06:07:09;;;;;;;9.83;3.50;;;5.00;99.90;;;;;;5013343;28;20668;-79
2022/01/15 06:09:35;;;;;;;11.53;3.70;;;5.00;99.90;;;;;;5008573;28;20706;-79
2022/01/15 06:12:01;;;;;;;10.53;3.27;;;5.00;99.90;;;;;;5007287;28;20189;-79
2022/01/15 06:14:27;;;;;;;8.40;3.27;;;5.30;99.90;;;;;;5010286;28;20227;-79
2022/01/15 06:16:53;;;;;;;7.93;3.63;;;5.00;99.90;;;;;;5006961;28;20716;-79
2022/01/15 06:19:18;;;;;;;10.00;3.80;;;5.00;99.90;;;;;;4986312;28;20686;-81
2022/01/15 06:21:44;;;;;;;10.10;3.20;;;5.00;99.90;;;;;;5005889;28;20668;-79
2022/01/15 06:24:10;;;;;;;8.93;3.57;;;5.00;99.90;;;;;;5009354;28;20185;-79
2022/01/15 06:26:35;;;;;;;8.70;4.13;;;5.00;99.90;;;;;;5012017;28;20224;-79
2022/01/15 06:29:01;;;;;;;11.17;3.37;;;5.00;99.90;;;;;;5004646;28;20295;-81
2022/01/15 06:31:28;;;;;;;6.20;3.00;;;5.00;99.90;;;;;;5011516;28;20193;-80
2022/01/15 06:33:53;;;;;;;10.77;3.07;;;5.00;99.90;;;;;;5010239;28;20193;-82
2022/01/15 06:36:19;;;;;;;11.07;3.30;;;5.00;99.90;;;;;;5000915;28;20667;-80
2022/01/15 06:38:45;;;;;;;12.43;4.77;;;5.00;99.90;;;;;;4989116;28;20225;-80
2022/01/15 06:41:10;;;;;;;8.90;4.30;;;5.00;99.90;;;;;;5010424;28;20244;-80
2022/01/15 06:43:36;;;;;;;12.33;4.60;;;5.00;99.90;;;;;;5006979;28;20201;-79
2022/01/15 06:46:01;;;;;;;8.23;3.73;;;5.10;99.90;;;;;;5008248;28;20692;-79
2022/01/15 06:48:29;;;;;;;5.50;3.97;;;5.10;99.90;;;;;;5005689;28;20221;-79
2022/01/15 06:50:55;;;;;;;10.77;4.23;;;5.00;99.90;;;;;;5001682;28;20185;-78
2022/01/15 06:53:20;;;;;;;8.60;3.70;;;5.00;99.90;;;;;;5010572;28;20643;-78
2022/01/15 06:55:49;;;;;;;9.50;4.50;;;5.00;99.90;;;;;;4995738;28;20740;-78
2022/01/15 06:58:15;;;;;;;8.80;3.70;;;5.10;99.90;;;;;;5021624;28;23309;-78
2022/01/15 07:00:41;;;;;;;10.57;3.87;;;5.10;99.90;;;;;;5002750;28;22733;-79
2022/01/15 07:03:07;;;;;;;5.60;3.57;;;5.10;99.90;;;;;;4998792;28;20652;-78
2022/01/15 07:05:32;;;;;;;7.77;4.17;;;5.10;99.90;;;;;;4987292;28;20198;-77
2022/01/15 07:07:58;;;;;;;7.30;4.30;;;5.10;99.90;;;;;;4996327;28;20701;-77
2022/01/15 07:10:24;;;;;;;12.33;5.13;;;5.10;99.90;;;;;;4998483;28;20217;-81
2022/01/15 07:12:51;;;;;;;8.03;3.90;;;5.10;99.90;;;;;;5001225;28;20291;-79
2022/01/15 07:15:16;;;;;;;8.47;4.27;;;5.10;99.90;;;;;;5004321;28;20908;-79
2022/01/15 07:17:46;;;;;;;8.67;4.37;;;5.10;99.90;;;;;;5006643;28;20766;-79
2022/01/15 07:20:13;;;;;;;8.83;3.83;;;5.10;99.90;;;;;;5001072;28;20421;-81
2022/01/15 07:22:39;;;;;;;9.07;5.00;;;5.10;99.90;;;;;;5007213;28;20682;-81
2022/01/15 07:25:06;;;;;;;9.23;4.87;;;5.10;99.90;;;;;;5003400;28;20624;-80
2022/01/15 07:27:32;;;;;;;7.53;4.43;;;5.10;99.90;;;;;;5005476;28;20708;-80
2022/01/15 07:29:57;;;;;;;10.63;4.70;;;5.10;99.90;;;;;;5005922;28;20664;-78
2022/01/15 07:32:23;;;;;;;9.80;4.47;;;5.10;99.90;;;;;;5003221;28;20259;-76
2022/01/15 07:34:48;;;;;;;6.43;4.80;;;5.10;99.90;;;;;;5006985;28;20181;-80
2022/01/15 07:37:14;;;;;;;9.87;5.50;;;5.10;99.90;;;;;;5005192;28;20243;-78
2022/01/15 07:39:42;;;;;;;6.53;4.70;;;5.10;99.90;;;;;;4996301;28;20263;-78
2022/01/15 07:42:09;;;;;;;9.30;5.10;;;5.10;99.90;;;;;;4992656;28;20268;-78
2022/01/15 07:44:34;;;;;;;9.47;5.20;;;5.10;99.90;;;;;;5007722;28;21128;-78
2022/01/15 07:47:00;;;;;;;11.27;5.83;;;5.10;99.90;;;;;;5005692;28;20694;-78
2022/01/15 07:49:26;;;;;;;7.80;4.43;;;5.10;99.90;;;;;;5001819;28;20750;-78
2022/01/15 07:51:51;;;;;;;10.47;5.33;;;5.10;99.90;;;;;;5008157;28;20751;-78
2022/01/15 07:54:17;;;;;;;9.03;5.20;;;5.10;99.90;;;;;;5009052;28;20972;-78
2022/01/15 07:56:43;;;;;;;7.93;5.20;;;5.10;99.90;;;;;;5004481;28;20360;-78
2022/01/15 07:59:08;;;;;;;9.60;5.17;;;5.20;99.90;;;;;;4985180;28;21692;-78
2022/01/15 08:01:34;;;;;;;12.10;5.43;;;5.10;99.90;;;;;;5005630;28;20200;-80
2022/01/15 08:04:01;;;;;;;11.23;5.37;;;5.10;99.90;;;;;;5006832;28;20288;-79
2022/01/15 08:06:27;;;;;;;15.30;5.43;;;5.10;99.90;;;;;;5006417;28;20259;-79
2022/01/15 08:08:52;;;;;;;11.73;5.37;;;5.20;99.90;;;;;;5007255;28;20660;-80
2022/01/15 08:11:18;;;;;;;10.73;6.07;;;5.20;99.90;;;;;;4997269;28;20190;-75
2022/01/15 08:13:43;;;;;;;11.30;4.93;;;5.20;99.90;;;;;;4997702;28;20700;-78
2022/01/15 08:16:09;;;;;;;9.50;5.20;;;5.20;99.90;;;;;;5004113;28;20273;-79
2022/01/15 08:18:35;;;;;;;13.77;5.80;;;5.20;99.90;;;;;;5005420;28;20237;-78
2022/01/15 08:21:03;;;;;;;8.10;5.27;;;5.20;99.90;;;;;;5006298;28;20628;-79
2022/01/15 08:23:29;;;;;;;8.50;5.77;;;5.20;99.90;;;;;;5005914;28;20190;-79
2022/01/15 08:25:54;;;;;;;10.90;5.03;;;5.20;99.90;;;;;;5002006;28;21199;-77
2022/01/15 08:28:20;;;;;;;11.20;5.43;;;5.20;99.90;;;;;;4974082;28;20664;-80
2022/01/15 08:30:46;;;;;;;8.77;5.50;;;5.30;99.90;;;;;;5005060;28;20403;-78
2022/01/15 08:33:12;;;;;;;10.63;6.47;;;5.30;99.90;;;;;;4988817;28;20276;-78
2022/01/15 08:35:37;;;;;;;13.63;6.73;;;5.30;99.90;;;;;;5008298;28;20196;-78
2022/01/15 08:38:03;;;;;;;10.57;5.60;;;5.40;99.90;;;;;;5009592;28;20264;-77
2022/01/15 08:40:32;;;;;;;13.57;6.77;;;5.40;99.90;;;;;;5003279;28;21078;-78
2022/01/15 08:42:58;;;;;;;16.23;6.10;;;5.40;99.90;;;;;;5006839;28;20624;-80
2022/01/15 08:45:24;;;;;;;16.33;6.60;;;5.40;99.90;;;;;;5009744;28;20624;-79
2022/01/15 08:47:50;;;;;;;7.37;5.20;;;5.40;99.90;;;;;;5012793;28;20748;-80
2022/01/15 08:50:16;;;;;;;9.97;5.10;;;5.50;99.90;;;;;;4995245;28;20733;-78
2022/01/15 08:52:43;;;;;;;9.13;5.70;;;5.50;99.90;;;;;;5007188;28;20292;-78
2022/01/15 08:55:09;;;;;;;9.30;5.80;;;5.80;99.90;;;;;;5010393;28;20724;-78
2022/01/15 08:57:35;;;;;;;12.10;7.10;;;5.50;99.90;;;;;;5006075;28;20743;-78
2022/01/15 09:00:04;;;;;;;11.37;5.70;;;5.50;99.90;;;;;;4994249;28;20645;-79
2022/01/15 09:02:29;;;;;;;13.93;5.50;;;5.60;99.90;;;;;;5000575;28;20686;-81
2022/01/15 09:04:55;;;;;;;11.33;6.37;;;5.60;99.90;;;;;;5008081;28;20993;-80
2022/01/15 09:07:20;;;;;;;8.10;4.83;;;5.60;99.90;;;;;;4985435;28;20405;-79
2022/01/15 09:09:46;;;;;;;9.87;6.13;;;5.70;99.90;;;;;;5004761;28;20233;-78
2022/01/15 09:12:12;;;;;;;9.07;4.60;;;5.70;99.90;;;;;;4992596;28;21676;-78
2022/01/15 09:14:41;;;;;;;7.27;4.93;;;5.70;99.90;;;;;;5002076;28;20190;-80
2022/01/15 09:17:09;;;;;;;10.60;5.23;;;5.80;99.90;;;;;;5004165;28;20240;-81
2022/01/15 09:19:35;;;;;;;9.00;4.90;;;5.80;99.90;;;;;;5000163;28;20766;-78
2022/01/15 09:22:06;;;;;;;8.67;4.67;;;5.80;99.90;;;;;;4999005;28;20632;-82
2022/01/15 09:24:32;;;;;;;7.23;4.53;;;5.80;99.90;;;;;;5008607;28;20205;-81
2022/01/15 09:32:08;;;;;;;7.10;4.23;;;6.00;99.90;;;;;;5006213;28;20200;-79
2022/01/15 09:34:34;;;;;;;8.93;4.80;;;6.00;99.90;;;;;;4981247;28;21192;-80
2022/01/15 09:37:01;;;;;;;8.90;4.83;;;6.00;99.90;;;;;;5001065;28;20639;-80
2022/01/15 09:39:27;;;;;;;9.50;5.37;;;6.10;99.90;;;;;;4999272;28;20663;-80
2022/01/15 09:41:54;;;;;;;6.33;4.10;;;6.10;99.90;;;;;;5005735;28;20616;-79
2022/01/15 09:44:25;;;;;;;8.40;4.43;;;6.10;99.90;;;;;;5008040;28;20188;-80
2022/01/15 09:46:51;;;;;;;11.10;4.83;;;6.20;99.90;;;;;;5004581;28;20905;-80
2022/01/15 09:49:18;;;;;;;14.33;5.23;;;6.20;99.90;;;;;;5006747;28;20715;-81
2022/01/15 09:51:45;;;;;;;8.90;5.43;;;6.20;99.90;;;;;;5008426;28;21121;-80
2022/01/15 09:54:13;;;;;;;9.03;4.50;;;6.20;99.90;;;;;;5007317;28;20617;-80
2022/01/15 09:56:38;;;;;;;8.60;4.07;;;6.30;99.90;;;;;;5003584;28;20683;-82
2022/01/15 09:59:04;;;;;;;10.43;4.70;;;6.30;99.90;;;;;;5000537;28;21162;-79
2022/01/15 10:01:30;;;;;;;9.90;4.03;;;6.30;99.90;;;;;;4998385;28;20248;-80
2022/01/15 10:03:57;;;;;;;5.87;3.70;;;6.40;99.90;;;;;;5008569;28;20210;-80
2022/01/15 10:06:23;;;;;;;8.87;4.50;;;6.40;99.90;;;;;;5003785;28;20683;-80
2022/01/15 10:09:07;;;;;;;6.47;3.80;;;6.40;99.90;;;;;;5001971;28;21269;-81
2022/01/15 10:11:40;;;;;;;11.83;3.60;;;6.50;99.90;;;;;;5005166;28;20189;-81
2022/01/15 10:14:28;;;;;;;6.40;3.30;;;6.50;99.90;;;;;;5002475;28;20710;-79
2022/01/15 10:16:56;;;;;;;9.00;4.70;;;6.50;99.90;;;;;;4992927;28;20722;-80
2022/01/15 10:19:34;;;;;;;7.40;3.23;;;6.50;99.90;;;;;;4994464;28;20651;-80
2022/01/15 10:22:12;;;;;;;6.57;3.90;;;6.50;99.90;;;;;;5002213;28;20617;-80
2022/01/15 10:24:39;;;;;;;10.97;4.10;;;6.60;99.90;;;;;;5005882;28;20624;-80
2022/01/15 10:27:24;;;;;;;8.70;4.03;;;6.60;99.90;;;;;;5006832;28;20734;-79
2022/01/15 10:30:13;;;;;;;8.70;3.63;;;6.70;99.90;;;;;;5008042;28;20727;-80
2022/01/15 10:32:52;;;;;;;9.30;3.80;;;6.70;99.90;;;;;;5005876;28;20605;-81
2022/01/15 10:35:19;;;;;;;6.87;4.10;;;6.80;99.90;;;;;;4990987;28;21773;-81
2022/01/15 10:37:50;;;;;;;9.70;4.00;;;6.80;99.90;;;;;;4987061;28;20628;-81
2022/01/15 10:40:19;;;;;;;8.90;3.33;;;6.90;99.90;;;;;;4995110;28;20979;-80
2022/01/15 10:43:13;;;;;;;11.03;4.57;;;6.90;99.90;;;;;;5001422;28;20624;-84
2022/01/15 10:45:54;;;;;;;9.27;4.77;;;7.00;99.90;;;;;;4992830;28;21063;-80
2022/01/15 10:48:26;;;;;;;10.07;3.80;;;7.00;99.90;;;;;;4994467;28;20764;-79
2022/01/15 10:51:07;;;;;;;10.50;3.87;;;7.10;99.90;;;;;;4997663;28;21091;-78
2022/01/15 10:53:38;;;;;;;8.93;3.93;;;7.10;99.90;;;;;;5001039;28;20632;-79
2022/01/15 10:56:05;;;;;;;8.17;3.90;;;7.10;99.90;;;;;;4993443;28;20640;-79
2022/01/15 10:58:31;;;;;;;9.50;4.47;;;7.20;99.90;;;;;;4996240;28;21009;-78
2022/01/15 11:00:57;;;;;;;7.30;3.93;;;7.20;99.90;;;;;;5002276;28;20620;-79
2022/01/15 11:03:25;;;;;;;8.93;3.70;;;7.20;99.90;;;;;;4990238;28;20729;-79
2022/01/15 11:05:52;;;;;;;6.77;3.20;;;7.30;99.90;;;;;;4999141;28;20231;-79
2022/01/15 11:08:20;;;;;;;7.60;3.50;;;7.40;99.90;;;;;;4995359;28;20698;-80
2022/01/15 11:10:50;;;;;;;11.47;3.70;;;7.50;99.90;;;;;;4997244;28;20617;-80
2022/01/15 11:13:21;;;;;;;8.97;4.53;;;7.60;99.90;;;;;;5006146;28;20608;-79
2022/01/15 11:15:54;;;;;;;8.90;3.60;;;7.70;99.90;;;;;;5004222;28;20643;-79
2022/01/15 11:18:28;;;;;;;12.90;4.20;;;7.80;99.90;;;;;;4991260;28;21311;-79
2022/01/15 11:20:56;;;;;;;10.33;3.73;;;7.80;99.90;;;;;;4972410;28;20604;-78
2022/01/15 11:23:27;;;;;;;7.20;2.90;;;7.90;99.90;;;;;;5000187;28;20608;-79
2022/01/15 11:25:55;;;;;;;12.57;3.73;;;8.00;99.90;;;;;;4995890;28;20677;-78
2022/01/15 11:28:26;;;;;;;12.40;3.67;;;8.10;99.90;;;;;;4967830;28;20666;-80
2022/01/15 11:30:56;;;;;;;10.97;5.60;;;8.30;99.90;;;;;;4934190;28;20609;-78
2022/01/15 11:33:24;;;;;;;8.03;3.03;;;8.20;99.90;;;;;;4975976;28;20616;-79
2022/01/15 11:35:51;;;;;;;15.00;3.70;;;8.30;99.90;;;;;;4995383;28;20664;-72
2022/01/15 11:38:46;;;;;;;8.00;3.23;;;8.40;99.90;;;;;;4998380;28;20635;-78
2022/01/15 11:41:27;;;;;;;11.43;3.43;;;8.40;99.90;;;;;;4999891;28;20648;-77
2022/01/15 11:44:20;;;;;;;12.93;3.40;;;8.50;99.90;;;;;;5000495;28;20687;-79
2022/01/15 11:46:47;;;;;;;11.40;3.60;;;8.50;99.90;;;;;;4967496;28;21159;-79
2022/01/15 11:49:35;;;;;;;9.47;3.37;;;8.70;99.90;;;;;;5004387;28;20641;-78
2022/01/15 11:52:06;;;;;;;16.17;4.20;;;8.70;99.90;;;;;;4998077;28;20585;-79
2022/01/15 11:54:32;;;;;;;12.40;4.27;;;8.70;99.90;;;;;;5003975;28;20695;-79
2022/01/15 11:57:01;;;;;;;13.57;3.87;;;8.80;99.90;;;;;;4988821;28;21044;-79
2022/01/15 11:59:26;;;;;;;12.60;4.13;;;8.80;99.90;;;;;;5004568;28;21284;-78
2022/01/15 12:01:57;;;;;;;12.97;3.30;;;8.80;99.90;;;;;;4996740;28;20759;-78
2022/01/15 12:04:37;;;;;;;11.40;3.13;;;8.80;99.90;;;;;;5004671;28;20208;-78
2022/01/15 12:07:06;;;;;;;13.87;3.13;;;8.90;99.90;;;;;;4999106;28;20702;-78
2022/01/15 12:09:48;;;;;;;12.37;3.10;;;8.90;99.90;;;;;;4997324;28;20723;-79
2022/01/15 12:12:30;;;;;;;8.57;2.67;;;8.80;99.90;;;;;;4996890;28;21127;-77
2022/01/15 12:14:56;;;;;;;9.23;3.30;;;8.90;99.90;;;;;;5000774;28;20584;-81
2022/01/15 12:17:28;;;;;;;13.43;3.20;;;8.90;99.90;;;;;;4984462;28;21074;-74
2022/01/15 12:19:55;;;;;;;12.70;4.30;;;8.90;99.90;;;;;;5001263;28;20708;-79
2022/01/15 12:22:44;;;;;;;15.00;3.37;;;9.00;99.90;;;;;;4983330;28;21456;-78
2022/01/15 12:25:18;;;;;;;8.93;3.57;;;9.00;99.90;;;;;;4978916;28;21183;-78
2022/01/15 12:27:57;;;;;;;12.10;3.90;;;9.10;99.90;;;;;;4995378;28;20661;-80
2022/01/15 12:30:28;;;;;;;12.07;3.90;;;9.10;99.90;;;;;;5000870;28;21724;-78
2022/01/15 12:32:57;;;;;;;8.07;3.50;;;9.20;99.90;;;;;;4984998;28;20682;-78
2022/01/15 12:35:25;;;;;;;15.17;3.67;;;9.10;99.90;;;;;;5011019;28;20616;-80
2022/01/15 12:38:07;;;;;;;10.33;3.13;;;9.10;99.90;;;;;;5005148;28;21673;-79
2022/01/15 12:40:35;;;;;;;11.73;4.40;;;9.00;99.90;;;;;;4998946;28;20634;-80
2022/01/15 12:43:02;;;;;;;9.73;3.37;;;9.10;99.90;;;;;;4998184;28;20627;-79
2022/01/15 12:45:29;;;;;;;14.33;4.40;;;9.10;99.90;;;;;;5004206;28;20719;-79
2022/01/15 12:47:55;;;;;;;9.37;3.30;;;9.10;99.90;;;;;;5007294;28;20655;-79
2022/01/15 12:50:21;;;;;;;12.33;3.90;;;9.10;99.90;;;;;;5004129;28;20664;-80
2022/01/15 12:52:57;;;;;;;10.13;3.33;;;9.10;99.90;;;;;;5022774;28;20647;-79
2022/01/15 12:55:35;;;;;;;7.70;2.77;;;9.10;99.90;;;;;;4997376;28;20620;-78
2022/01/15 12:58:05;;;;;;;10.17;3.30;;;9.10;99.90;;;;;;5001428;28;21356;-78
2022/01/15 13:00:33;;;;;;;10.90;3.57;;;9.10;99.90;;;;;;4999722;28;20639;-80
2022/01/15 13:03:05;;;;;;;9.07;3.40;;;9.10;99.90;;;;;;5019289;28;20696;-79
2022/01/15 13:05:33;;;;;;;13.00;3.53;;;9.20;99.90;;;;;;5000485;28;20627;-78
2022/01/15 13:08:04;;;;;;;11.13;3.30;;;9.30;99.90;;;;;;5000889;28;20691;-80
2022/01/15 13:10:53;;;;;;;10.47;3.50;;;9.30;99.90;;;;;;4981446;28;20627;-79
2022/01/15 13:13:21;;;;;;;13.67;3.50;;;9.30;99.90;;;;;;4994091;28;20672;-78
2022/01/15 13:15:56;;;;;;;11.50;3.67;;;9.30;99.90;;;;;;4997172;28;21179;-81
2022/01/15 13:18:22;;;;;;;10.57;4.87;;;9.30;99.90;;;;;;4970679;28;20638;-79
2022/01/15 13:20:53;;;;;;;17.23;3.87;;;9.30;99.90;;;;;;5002625;28;20608;-82
2022/01/15 13:23:20;;;;;;;11.27;3.40;;;9.20;99.90;;;;;;5000282;28;20716;-81